sensor_id;sensor_type;location;lat;lon;timestamp;temperature;humidity
62555;DHT22;48610;52.144;8.624;2023-02-15T00:00:22;5.40;99.90
62555;DHT22;48610;52.144;8.624;2023-02-15T00:03:23;5.50;99.90
62555;DHT22;48610;52.144;8.624;2023-02-15T00:06:23;5.60;99.90
62555;DHT22;48610;52.144;8.624;2023-02-15T00:09:24;5.40;99.90
62555;DHT22;48610;52.144;8.624;2023-02-15T00:12:24;5.40;99.90
62555;DHT22;48610;52.144;8.624;2023-02-15T00:15:25;5.20;99.90
62555;DHT22;48610;52.144;8.624;2023-02-15T00:18:26;5.10;99.90
62555;DHT22;48610;52.144;8.624;2023-02-15T00:21:27;5.10;99.90
62555;DHT22;48610;52.144;8.624;2023-02-15T00:24:28;5.00;99.90
62555;DHT22;48610;52.144;8.624;2023-02-15T00:27:28;5.30;99.90
62555;DHT22;48610;52.144;8.624;2023-02-15T00:30:29;5.20;99.90
62555;DHT22;48610;52.144;8.624;2023-02-15T00:33:29;5.10;99.90
62555;DHT22;48610;52.144;8.624;2023-02-15T00:36:30;5.00;99.90
62555;DHT22;48610;52.144;8.624;2023-02-15T00:39:30;5.10;99.90
62555;DHT22;48610;52.144;8.624;2023-02-15T00:42:31;5.10;99.90
62555;DHT22;48610;52.144;8.624;2023-02-15T00:45:31;4.90;99.90
62555;DHT22;48610;52.144;8.624;2023-02-15T00:48:32;4.80;99.90
62555;DHT22;48610;52.144;8.624;2023-02-15T00:51:33;5.00;99.90
62555;DHT22;48610;52.144;8.624;2023-02-15T00:54:34;4.90;99.90
62555;DHT22;48610;52.144;8.624;2023-02-15T00:57:35;4.90;99.90
62555;DHT22;48610;52.144;8.624;2023-02-15T01:00:36;4.90;99.90
62555;DHT22;48610;52.144;8.624;2023-02-15T01:03:37;4.70;99.90
62555;DHT22;48610;52.144;8.624;2023-02-15T01:06:38;4.90;99.90
62555;DHT22;48610;52.144;8.624;2023-02-15T01:09:38;4.60;99.90
62555;DHT22;48610;52.144;8.624;2023-02-15T01:12:39;4.70;99.90
62555;DHT22;48610;52.144;8.624;2023-02-15T01:15:39;4.60;99.90
62555;DHT22;48610;52.144;8.624;2023-02-15T01:18:40;4.70;99.90
62555;DHT22;48610;52.144;8.624;2023-02-15T01:21:41;4.70;99.90
62555;DHT22;48610;52.144;8.624;2023-02-15T01:24:41;4.50;99.90
62555;DHT22;48610;52.144;8.624;2023-02-15T01:27:42;4.60;99.90
62555;DHT22;48610;52.144;8.624;2023-02-15T01:30:43;4.60;99.90
62555;DHT22;48610;52.144;8.624;2023-02-15T01:33:44;4.70;99.90
62555;DHT22;48610;52.144;8.624;2023-02-15T01:36:45;4.60;99.90
62555;DHT22;48610;52.144;8.624;2023-02-15T01:39:46;4.50;99.90
62555;DHT22;48610;52.144;8.624;2023-02-15T01:42:53;4.20;99.90
62555;DHT22;48610;52.144;8.624;2023-02-15T01:45:54;4.00;99.90
62555;DHT22;48610;52.144;8.624;2023-02-15T01:49:00;3.90;99.90
62555;DHT22;48610;52.144;8.624;2023-02-15T01:52:01;4.10;99.90
62555;DHT22;48610;52.144;8.624;2023-02-15T01:55:02;3.90;99.90
62555;DHT22;48610;52.144;8.624;2023-02-15T01:58:03;4.10;99.90
62555;DHT22;48610;52.144;8.624;2023-02-15T02:01:04;4.20;99.90
62555;DHT22;48610;52.144;8.624;2023-02-15T02:04:50;4.10;99.90
62555;DHT22;48610;52.144;8.624;2023-02-15T02:07:52;4.00;99.90
62555;DHT22;48610;52.144;8.624;2023-02-15T02:10:54;4.00;99.90
62555;DHT22;48610;52.144;8.624;2023-02-15T02:13:55;4.00;99.90
62555;DHT22;48610;52.144;8.624;2023-02-15T02:23:57;4.10;99.90
62555;DHT22;48610;52.144;8.624;2023-02-15T02:30:54;4.10;99.90
62555;DHT22;48610;52.144;8.624;2023-02-15T02:40:39;3.70;99.90
62555;DHT22;48610;52.144;8.624;2023-02-15T02:47:21;3.20;99.90
62555;DHT22;48610;52.144;8.624;2023-02-15T02:50:28;3.10;99.90
62555;DHT22;48610;52.144;8.624;2023-02-15T02:53:30;3.40;99.90
62555;DHT22;48610;52.144;8.624;2023-02-15T02:56:42;3.30;99.90
62555;DHT22;48610;52.144;8.624;2023-02-15T02:59:46;3.00;99.90
62555;DHT22;48610;52.144;8.624;2023-02-15T03:02:49;3.20;99.90
62555;DHT22;48610;52.144;8.624;2023-02-15T03:05:54;3.30;99.90
62555;DHT22;48610;52.144;8.624;2023-02-15T03:09:15;3.20;99.90
62555;DHT22;48610;52.144;8.624;2023-02-15T03:12:28;3.20;99.90
62555;DHT22;48610;52.144;8.624;2023-02-15T03:15:34;3.20;99.90
62555;DHT22;48610;52.144;8.624;2023-02-15T03:19:17;3.20;99.90
62555;DHT22;48610;52.144;8.624;2023-02-15T03:22:29;3.10;99.90
62555;DHT22;48610;52.144;8.624;2023-02-15T03:25:38;2.80;99.90
62555;DHT22;48610;52.144;8.624;2023-02-15T03:28:42;2.70;99.90
62555;DHT22;48610;52.144;8.624;2023-02-15T03:31:46;2.70;99.90
62555;DHT22;48610;52.144;8.624;2023-02-15T03:34:49;2.50;99.90
62555;DHT22;48610;52.144;8.624;2023-02-15T03:37:57;2.50;99.90
62555;DHT22;48610;52.144;8.624;2023-02-15T03:40:59;2.60;99.90
62555;DHT22;48610;52.144;8.624;2023-02-15T03:44:23;2.60;99.90
62555;DHT22;48610;52.144;8.624;2023-02-15T03:47:31;2.60;99.90
62555;DHT22;48610;52.144;8.624;2023-02-15T03:50:35;2.60;99.90
62555;DHT22;48610;52.144;8.624;2023-02-15T03:53:55;2.50;99.90
62555;DHT22;48610;52.144;8.624;2023-02-15T03:56:57;2.30;99.90
62555;DHT22;48610;52.144;8.624;2023-02-15T04:00:19;2.20;99.90
62555;DHT22;48610;52.144;8.624;2023-02-15T04:04:27;2.10;99.90
62555;DHT22;48610;52.144;8.624;2023-02-15T04:07:04;1.90;99.90
62555;DHT22;48610;52.144;8.624;2023-02-15T04:10:05;1.70;99.90
62555;DHT22;48610;52.144;8.624;2023-02-15T04:13:32;1.70;99.90
62555;DHT22;48610;52.144;8.624;2023-02-15T04:16:32;1.50;99.90
62555;DHT22;48610;52.144;8.624;2023-02-15T04:19:33;1.60;99.90
62555;DHT22;48610;52.144;8.624;2023-02-15T04:22:52;1.40;99.90
62555;DHT22;48610;52.144;8.624;2023-02-15T04:26:11;1.50;99.90
62555;DHT22;48610;52.144;8.624;2023-02-15T04:29:12;1.40;99.90
62555;DHT22;48610;52.144;8.624;2023-02-15T04:32:13;1.10;99.90
62555;DHT22;48610;52.144;8.624;2023-02-15T04:35:14;1.00;99.90
62555;DHT22;48610;52.144;8.624;2023-02-15T04:38:14;1.10;99.90
62555;DHT22;48610;52.144;8.624;2023-02-15T04:41:15;1.00;99.90
62555;DHT22;48610;52.144;8.624;2023-02-15T04:44:15;1.10;99.90
62555;DHT22;48610;52.144;8.624;2023-02-15T04:47:16;1.10;99.90
62555;DHT22;48610;52.144;8.624;2023-02-15T04:50:17;1.00;99.90
62555;DHT22;48610;52.144;8.624;2023-02-15T04:53:17;1.00;99.90
62555;DHT22;48610;52.144;8.624;2023-02-15T04:56:19;1.00;99.90
62555;DHT22;48610;52.144;8.624;2023-02-15T04:59:19;1.00;99.90
62555;DHT22;48610;52.144;8.624;2023-02-15T05:02:20;1.00;99.90
62555;DHT22;48610;52.144;8.624;2023-02-15T05:05:21;1.10;99.90
62555;DHT22;48610;52.144;8.624;2023-02-15T05:08:21;1.10;99.90
62555;DHT22;48610;52.144;8.624;2023-02-15T05:11:22;1.10;99.90
62555;DHT22;48610;52.144;8.624;2023-02-15T05:14:22;1.10;99.90
62555;DHT22;48610;52.144;8.624;2023-02-15T05:17:23;1.00;99.90
62555;DHT22;48610;52.144;8.624;2023-02-15T05:20:24;0.90;99.90
62555;DHT22;48610;52.144;8.624;2023-02-15T05:23:25;1.10;99.90
62555;DHT22;48610;52.144;8.624;2023-02-15T05:26:25;1.10;99.90
62555;DHT22;48610;52.144;8.624;2023-02-15T05:29:45;1.00;99.90
62555;DHT22;48610;52.144;8.624;2023-02-15T05:32:45;0.90;99.90
62555;DHT22;48610;52.144;8.624;2023-02-15T05:35:46;1.10;99.90
62555;DHT22;48610;52.144;8.624;2023-02-15T05:38:46;0.90;99.90
62555;DHT22;48610;52.144;8.624;2023-02-15T05:41:47;1.00;99.90
62555;DHT22;48610;52.144;8.624;2023-02-15T05:44:47;1.10;99.90
62555;DHT22;48610;52.144;8.624;2023-02-15T05:47:48;1.10;99.90
62555;DHT22;48610;52.144;8.624;2023-02-15T05:51:09;1.10;99.90
62555;DHT22;48610;52.144;8.624;2023-02-15T05:54:10;1.10;99.90
62555;DHT22;48610;52.144;8.624;2023-02-15T05:57:10;1.00;99.90
62555;DHT22;48610;52.144;8.624;2023-02-15T06:00:12;0.90;99.90
62555;DHT22;48610;52.144;8.624;2023-02-15T06:03:13;0.80;99.90
62555;DHT22;48610;52.144;8.624;2023-02-15T06:06:13;0.80;99.90
62555;DHT22;48610;52.144;8.624;2023-02-15T06:09:14;0.70;99.90
62555;DHT22;48610;52.144;8.624;2023-02-15T06:12:14;0.70;99.90
62555;DHT22;48610;52.144;8.624;2023-02-15T06:15:15;0.80;99.90
62555;DHT22;48610;52.144;8.624;2023-02-15T06:18:16;0.60;99.90
62555;DHT22;48610;52.144;8.624;2023-02-15T06:21:17;0.70;99.90
62555;DHT22;48610;52.144;8.624;2023-02-15T06:24:17;0.80;99.90
62555;DHT22;48610;52.144;8.624;2023-02-15T06:27:18;0.90;99.90
62555;DHT22;48610;52.144;8.624;2023-02-15T06:30:18;0.80;99.90
62555;DHT22;48610;52.144;8.624;2023-02-15T06:33:19;1.00;99.90
62555;DHT22;48610;52.144;8.624;2023-02-15T06:36:20;0.90;99.90
62555;DHT22;48610;52.144;8.624;2023-02-15T06:39:20;0.80;99.90
62555;DHT22;48610;52.144;8.624;2023-02-15T06:42:21;0.80;99.90
62555;DHT22;48610;52.144;8.624;2023-02-15T06:45:22;0.80;99.90
62555;DHT22;48610;52.144;8.624;2023-02-15T06:48:23;0.80;99.90
62555;DHT22;48610;52.144;8.624;2023-02-15T06:51:23;0.80;99.90
62555;DHT22;48610;52.144;8.624;2023-02-15T06:54:24;0.70;99.90
62555;DHT22;48610;52.144;8.624;2023-02-15T06:57:24;0.80;99.90
62555;DHT22;48610;52.144;8.624;2023-02-15T07:00:25;0.90;99.90
62555;DHT22;48610;52.144;8.624;2023-02-15T07:03:25;0.90;99.90
62555;DHT22;48610;52.144;8.624;2023-02-15T07:06:26;0.90;99.90
62555;DHT22;48610;52.144;8.624;2023-02-15T07:09:30;1.00;99.90
62555;DHT22;48610;52.144;8.624;2023-02-15T07:12:31;1.00;99.90
62555;DHT22;48610;52.144;8.624;2023-02-15T07:15:47;1.10;99.90
62555;DHT22;48610;52.144;8.624;2023-02-15T07:18:48;1.00;99.90
62555;DHT22;48610;52.144;8.624;2023-02-15T07:21:48;1.20;99.90
62555;DHT22;48610;52.144;8.624;2023-02-15T07:24:49;1.30;99.90
62555;DHT22;48610;52.144;8.624;2023-02-15T07:27:58;1.20;99.90
62555;DHT22;48610;52.144;8.624;2023-02-15T07:31:02;1.20;99.90
62555;DHT22;48610;52.144;8.624;2023-02-15T07:34:02;1.30;99.90
62555;DHT22;48610;52.144;8.624;2023-02-15T07:37:03;1.30;99.90
62555;DHT22;48610;52.144;8.624;2023-02-15T07:40:05;1.40;99.90
62555;DHT22;48610;52.144;8.624;2023-02-15T07:43:06;1.40;99.90
62555;DHT22;48610;52.144;8.624;2023-02-15T07:46:12;1.40;99.90
62555;DHT22;48610;52.144;8.624;2023-02-15T07:49:13;1.30;99.90
62555;DHT22;48610;52.144;8.624;2023-02-15T07:52:14;1.30;99.90
62555;DHT22;48610;52.144;8.624;2023-02-15T07:55:15;1.40;99.90
62555;DHT22;48610;52.144;8.624;2023-02-15T07:58:16;1.40;99.90
62555;DHT22;48610;52.144;8.624;2023-02-15T08:01:18;1.50;99.90
62555;DHT22;48610;52.144;8.624;2023-02-15T08:04:19;1.30;99.90
62555;DHT22;48610;52.144;8.624;2023-02-15T08:07:19;1.30;99.90
62555;DHT22;48610;52.144;8.624;2023-02-15T08:10:20;1.20;99.90
62555;DHT22;48610;52.144;8.624;2023-02-15T08:13:43;1.20;99.90
62555;DHT22;48610;52.144;8.624;2023-02-15T08:16:55;1.10;99.90
62555;DHT22;48610;52.144;8.624;2023-02-15T08:19:56;1.20;99.90
62555;DHT22;48610;52.144;8.624;2023-02-15T08:22:56;1.30;99.90
62555;DHT22;48610;52.144;8.624;2023-02-15T08:25:59;1.30;99.90
62555;DHT22;48610;52.144;8.624;2023-02-15T08:29:01;1.40;99.90
62555;DHT22;48610;52.144;8.624;2023-02-15T08:32:04;1.70;99.90
62555;DHT22;48610;52.144;8.624;2023-02-15T08:35:05;1.80;99.90
62555;DHT22;48610;52.144;8.624;2023-02-15T08:38:06;1.90;99.90
62555;DHT22;48610;52.144;8.624;2023-02-15T08:44:16;2.00;99.90
62555;DHT22;48610;52.144;8.624;2023-02-15T08:47:17;2.30;99.90
62555;DHT22;48610;52.144;8.624;2023-02-15T08:50:18;2.50;99.90
62555;DHT22;48610;52.144;8.624;2023-02-15T08:53:18;2.90;99.90
62555;DHT22;48610;52.144;8.624;2023-02-15T08:56:26;2.90;99.90
62555;DHT22;48610;52.144;8.624;2023-02-15T08:59:28;2.70;99.90
62555;DHT22;48610;52.144;8.624;2023-02-15T09:02:28;3.10;99.90
62555;DHT22;48610;52.144;8.624;2023-02-15T09:05:29;3.20;99.90
62555;DHT22;48610;52.144;8.624;2023-02-15T09:08:29;3.40;99.90
62555;DHT22;48610;52.144;8.624;2023-02-15T09:11:33;3.30;99.90
62555;DHT22;48610;52.144;8.624;2023-02-15T09:14:34;3.50;99.90
62555;DHT22;48610;52.144;8.624;2023-02-15T09:17:34;3.90;99.90
62555;DHT22;48610;52.144;8.624;2023-02-15T09:20:35;4.20;99.90
62555;DHT22;48610;52.144;8.624;2023-02-15T09:23:36;4.40;99.90
62555;DHT22;48610;52.144;8.624;2023-02-15T09:26:39;4.50;99.90
62555;DHT22;48610;52.144;8.624;2023-02-15T09:29:43;4.50;99.90
62555;DHT22;48610;52.144;8.624;2023-02-15T09:32:43;4.20;99.90
62555;DHT22;48610;52.144;8.624;2023-02-15T09:35:46;4.40;99.90
62555;DHT22;48610;52.144;8.624;2023-02-15T09:38:47;4.80;99.90
62555;DHT22;48610;52.144;8.624;2023-02-15T09:42:56;4.70;99.90
62555;DHT22;48610;52.144;8.624;2023-02-15T09:45:41;4.60;99.90
62555;DHT22;48610;52.144;8.624;2023-02-15T09:48:52;4.60;99.90
62555;DHT22;48610;52.144;8.624;2023-02-15T09:55:18;4.40;99.90
62555;DHT22;48610;52.144;8.624;2023-02-15T10:15:03;6.10;99.90
62555;DHT22;48610;52.144;8.624;2023-02-15T10:31:51;7.00;99.90
62555;DHT22;48610;52.144;8.624;2023-02-15T10:35:07;7.00;99.90
62555;DHT22;48610;52.144;8.624;2023-02-15T10:39:00;7.30;99.90
62555;DHT22;48610;52.144;8.624;2023-02-15T10:45:12;7.90;99.90
62555;DHT22;48610;52.144;8.624;2023-02-15T10:52:15;7.00;99.90
62555;DHT22;48610;52.144;8.624;2023-02-15T10:59:13;7.90;99.90
62555;DHT22;48610;52.144;8.624;2023-02-15T11:02:41;8.20;99.90
62555;DHT22;48610;52.144;8.624;2023-02-15T11:06:14;8.00;99.90
62555;DHT22;48610;52.144;8.624;2023-02-15T11:09:17;8.30;99.90
62555;DHT22;48610;52.144;8.624;2023-02-15T11:12:24;8.30;99.90
62555;DHT22;48610;52.144;8.624;2023-02-15T11:15:54;8.30;99.90
62555;DHT22;48610;52.144;8.624;2023-02-15T11:19:26;8.60;99.90
62555;DHT22;48610;52.144;8.624;2023-02-15T11:22:30;9.10;99.90
62555;DHT22;48610;52.144;8.624;2023-02-15T11:25:33;8.70;99.90
62555;DHT22;48610;52.144;8.624;2023-02-15T11:28:49;8.40;99.90
62555;DHT22;48610;52.144;8.624;2023-02-15T11:31:54;8.60;99.90
62555;DHT22;48610;52.144;8.624;2023-02-15T11:35:18;8.90;99.90
62555;DHT22;48610;52.144;8.624;2023-02-15T11:38:26;9.20;99.90
62555;DHT22;48610;52.144;8.624;2023-02-15T11:41:34;9.30;99.90
62555;DHT22;48610;52.144;8.624;2023-02-15T11:45:45;9.30;99.90
62555;DHT22;48610;52.144;8.624;2023-02-15T11:48:30;9.10;99.90
62555;DHT22;48610;52.144;8.624;2023-02-15T11:51:31;9.10;99.90
62555;DHT22;48610;52.144;8.624;2023-02-15T11:54:34;9.30;99.90
62555;DHT22;48610;52.144;8.624;2023-02-15T11:57:41;9.10;99.90
62555;DHT22;48610;52.144;8.624;2023-02-15T12:00:46;9.70;99.90
62555;DHT22;48610;52.144;8.624;2023-02-15T12:04:02;9.70;99.90
62555;DHT22;48610;52.144;8.624;2023-02-15T12:10:31;10.20;99.90
62555;DHT22;48610;52.144;8.624;2023-02-15T12:13:34;10.30;99.90
62555;DHT22;48610;52.144;8.624;2023-02-15T12:16:51;10.20;99.90
62555;DHT22;48610;52.144;8.624;2023-02-15T12:19:57;10.60;99.90
62555;DHT22;48610;52.144;8.624;2023-02-15T12:23:03;10.50;99.90
62555;DHT22;48610;52.144;8.624;2023-02-15T12:26:04;10.00;99.90
62555;DHT22;48610;52.144;8.624;2023-02-15T12:29:15;9.80;99.90
62555;DHT22;48610;52.144;8.624;2023-02-15T12:32:24;9.90;99.90
62555;DHT22;48610;52.144;8.624;2023-02-15T12:35:31;10.10;99.90
62555;DHT22;48610;52.144;8.624;2023-02-15T12:38:32;9.90;99.90
62555;DHT22;48610;52.144;8.624;2023-02-15T12:41:33;9.20;99.90
62555;DHT22;48610;52.144;8.624;2023-02-15T12:44:35;9.40;99.90
62555;DHT22;48610;52.144;8.624;2023-02-15T12:47:37;9.30;99.90
62555;DHT22;48610;52.144;8.624;2023-02-15T12:50:39;9.80;99.90
62555;DHT22;48610;52.144;8.624;2023-02-15T12:53:43;10.00;99.90
62555;DHT22;48610;52.144;8.624;2023-02-15T12:56:43;9.90;99.90
62555;DHT22;48610;52.144;8.624;2023-02-15T12:59:51;9.50;99.90
62555;DHT22;48610;52.144;8.624;2023-02-15T13:02:54;9.10;99.90
62555;DHT22;48610;52.144;8.624;2023-02-15T13:05:57;9.40;99.90
62555;DHT22;48610;52.144;8.624;2023-02-15T13:09:11;9.60;99.90
62555;DHT22;48610;52.144;8.624;2023-02-15T13:12:25;9.70;99.90
62555;DHT22;48610;52.144;8.624;2023-02-15T13:15:35;9.80;99.90
62555;DHT22;48610;52.144;8.624;2023-02-15T13:18:39;10.10;99.90
62555;DHT22;48610;52.144;8.624;2023-02-15T13:21:46;10.10;99.90
62555;DHT22;48610;52.144;8.624;2023-02-15T13:24:50;9.90;99.90
62555;DHT22;48610;52.144;8.624;2023-02-15T13:27:55;9.90;99.90
62555;DHT22;48610;52.144;8.624;2023-02-15T13:30:56;10.00;99.90
62555;DHT22;48610;52.144;8.624;2023-02-15T13:34:31;10.00;99.90
62555;DHT22;48610;52.144;8.624;2023-02-15T13:40:51;10.10;99.90
62555;DHT22;48610;52.144;8.624;2023-02-15T13:44:15;10.10;99.90
62555;DHT22;48610;52.144;8.624;2023-02-15T13:57:44;10.40;99.90
62555;DHT22;48610;52.144;8.624;2023-02-15T14:30:28;10.80;99.90
62555;DHT22;48610;52.144;8.624;2023-02-15T14:33:35;10.90;99.90
62555;DHT22;48610;52.144;8.624;2023-02-15T14:36:37;11.10;99.90
62555;DHT22;48610;52.144;8.624;2023-02-15T14:39:48;11.00;99.90
62555;DHT22;48610;52.144;8.624;2023-02-15T14:49:46;11.10;99.90
62555;DHT22;48610;52.144;8.624;2023-02-15T14:56:28;10.80;99.90
62555;DHT22;48610;52.144;8.624;2023-02-15T14:59:55;10.40;99.90
62555;DHT22;48610;52.144;8.624;2023-02-15T15:02:57;10.60;99.90
62555;DHT22;48610;52.144;8.624;2023-02-15T15:05:59;10.90;99.90
62555;DHT22;48610;52.144;8.624;2023-02-15T15:09:24;10.80;99.90
62555;DHT22;48610;52.144;8.624;2023-02-15T15:18:52;10.40;99.90
62555;DHT22;48610;52.144;8.624;2023-02-15T15:21:54;10.40;99.90
62555;DHT22;48610;52.144;8.624;2023-02-15T15:24:58;10.40;99.90
62555;DHT22;48610;52.144;8.624;2023-02-15T15:27:59;10.30;99.90
62555;DHT22;48610;52.144;8.624;2023-02-15T15:35:00;10.10;99.90
62555;DHT22;48610;52.144;8.624;2023-02-15T15:41:43;10.20;99.90
62555;DHT22;48610;52.144;8.624;2023-02-15T15:51:30;9.90;99.90
62555;DHT22;48610;52.144;8.624;2023-02-15T15:54:31;9.70;99.90
62555;DHT22;48610;52.144;8.624;2023-02-15T15:57:35;9.70;99.90
62555;DHT22;48610;52.144;8.624;2023-02-15T16:00:47;9.50;99.90
62555;DHT22;48610;52.144;8.624;2023-02-15T16:03:54;9.20;99.90
62555;DHT22;48610;52.144;8.624;2023-02-15T16:06:56;9.10;99.90
62555;DHT22;48610;52.144;8.624;2023-02-15T16:10:05;9.10;99.90
62555;DHT22;48610;52.144;8.624;2023-02-15T16:13:06;9.00;99.90
62555;DHT22;48610;52.144;8.624;2023-02-15T16:16:07;9.00;99.90
62555;DHT22;48610;52.144;8.624;2023-02-15T16:19:18;8.90;99.90
62555;DHT22;48610;52.144;8.624;2023-02-15T16:22:21;9.10;99.90
62555;DHT22;48610;52.144;8.624;2023-02-15T16:25:47;9.00;99.90
62555;DHT22;48610;52.144;8.624;2023-02-15T16:28:52;9.00;99.90
62555;DHT22;48610;52.144;8.624;2023-02-15T16:35:22;8.90;99.90
62555;DHT22;48610;52.144;8.624;2023-02-15T16:41:42;8.70;99.90
62555;DHT22;48610;52.144;8.624;2023-02-15T16:44:50;8.80;99.90
62555;DHT22;48610;52.144;8.624;2023-02-15T16:47:54;8.60;99.90
62555;DHT22;48610;52.144;8.624;2023-02-15T16:50:57;8.80;99.90
62555;DHT22;48610;52.144;8.624;2023-02-15T16:54:23;8.60;99.90
62555;DHT22;48610;52.144;8.624;2023-02-15T16:57:26;8.40;99.90
62555;DHT22;48610;52.144;8.624;2023-02-15T17:00:31;8.40;99.90
62555;DHT22;48610;52.144;8.624;2023-02-15T17:03:32;8.30;99.90
62555;DHT22;48610;52.144;8.624;2023-02-15T17:06:33;8.20;99.90
62555;DHT22;48610;52.144;8.624;2023-02-15T17:09:34;8.20;99.90
62555;DHT22;48610;52.144;8.624;2023-02-15T17:12:47;8.10;99.90
62555;DHT22;48610;52.144;8.624;2023-02-15T17:19:08;8.00;99.90
62555;DHT22;48610;52.144;8.624;2023-02-15T17:22:18;8.10;99.90
62555;DHT22;48610;52.144;8.624;2023-02-15T17:25:25;8.00;99.90
62555;DHT22;48610;52.144;8.624;2023-02-15T17:28:30;8.20;99.90
62555;DHT22;48610;52.144;8.624;2023-02-15T17:31:32;8.30;99.90
62555;DHT22;48610;52.144;8.624;2023-02-15T17:35:08;8.10;99.90
62555;DHT22;48610;52.144;8.624;2023-02-15T17:38:19;8.00;99.90
62555;DHT22;48610;52.144;8.624;2023-02-15T17:41:20;7.80;99.90
62555;DHT22;48610;52.144;8.624;2023-02-15T17:44:21;7.60;99.90
62555;DHT22;48610;52.144;8.624;2023-02-15T17:47:23;7.60;99.90
62555;DHT22;48610;52.144;8.624;2023-02-15T17:50:27;7.60;99.90
62555;DHT22;48610;52.144;8.624;2023-02-15T17:53:28;7.50;99.90
62555;DHT22;48610;52.144;8.624;2023-02-15T17:56:28;7.50;99.90
62555;DHT22;48610;52.144;8.624;2023-02-15T17:59:29;7.60;99.90
62555;DHT22;48610;52.144;8.624;2023-02-15T18:02:33;7.60;99.90
62555;DHT22;48610;52.144;8.624;2023-02-15T18:05:53;7.70;99.90
62555;DHT22;48610;52.144;8.624;2023-02-15T18:09:15;7.60;99.90
62555;DHT22;48610;52.144;8.624;2023-02-15T18:12:35;7.50;99.90
62555;DHT22;48610;52.144;8.624;2023-02-15T18:15:37;7.30;99.90
62555;DHT22;48610;52.144;8.624;2023-02-15T18:18:38;7.20;99.90
62555;DHT22;48610;52.144;8.624;2023-02-15T18:21:39;7.20;99.90
62555;DHT22;48610;52.144;8.624;2023-02-15T18:24:39;7.20;99.90
62555;DHT22;48610;52.144;8.624;2023-02-15T18:27:40;7.20;99.90
62555;DHT22;48610;52.144;8.624;2023-02-15T18:30:40;7.10;99.90
62555;DHT22;48610;52.144;8.624;2023-02-15T18:33:47;7.20;99.90
62555;DHT22;48610;52.144;8.624;2023-02-15T18:36:48;7.00;99.90
62555;DHT22;48610;52.144;8.624;2023-02-15T18:39:50;6.60;99.90
62555;DHT22;48610;52.144;8.624;2023-02-15T18:42:53;6.70;99.90
62555;DHT22;48610;52.144;8.624;2023-02-15T18:45:56;6.70;99.90
62555;DHT22;48610;52.144;8.624;2023-02-15T18:48:56;6.80;99.90
62555;DHT22;48610;52.144;8.624;2023-02-15T18:51:57;6.70;99.90
62555;DHT22;48610;52.144;8.624;2023-02-15T18:54:59;6.70;99.90
62555;DHT22;48610;52.144;8.624;2023-02-15T18:58:01;6.70;99.90
62555;DHT22;48610;52.144;8.624;2023-02-15T19:01:02;6.60;99.90
62555;DHT22;48610;52.144;8.624;2023-02-15T19:04:04;6.50;99.90
62555;DHT22;48610;52.144;8.624;2023-02-15T19:07:05;6.30;99.90
62555;DHT22;48610;52.144;8.624;2023-02-15T19:10:07;6.40;99.90
62555;DHT22;48610;52.144;8.624;2023-02-15T19:13:13;6.40;99.90
62555;DHT22;48610;52.144;8.624;2023-02-15T19:16:33;6.10;99.90
62555;DHT22;48610;52.144;8.624;2023-02-15T19:19:34;6.10;99.90
62555;DHT22;48610;52.144;8.624;2023-02-15T19:22:35;6.20;99.90
62555;DHT22;48610;52.144;8.624;2023-02-15T19:25:36;6.10;99.90
62555;DHT22;48610;52.144;8.624;2023-02-15T19:28:38;6.00;99.90
62555;DHT22;48610;52.144;8.624;2023-02-15T19:31:39;6.00;99.90
62555;DHT22;48610;52.144;8.624;2023-02-15T19:34:39;6.00;99.90
62555;DHT22;48610;52.144;8.624;2023-02-15T19:37:43;5.80;99.90
62555;DHT22;48610;52.144;8.624;2023-02-15T19:40:44;5.80;99.90
62555;DHT22;48610;52.144;8.624;2023-02-15T19:43:52;5.80;99.90
62555;DHT22;48610;52.144;8.624;2023-02-15T19:46:55;5.90;99.90
62555;DHT22;48610;52.144;8.624;2023-02-15T19:49:55;5.90;99.90
62555;DHT22;48610;52.144;8.624;2023-02-15T19:53:01;5.90;99.90
62555;DHT22;48610;52.144;8.624;2023-02-15T19:56:02;6.00;99.90
62555;DHT22;48610;52.144;8.624;2023-02-15T19:59:02;5.70;99.90
62555;DHT22;48610;52.144;8.624;2023-02-15T20:02:04;5.60;99.90
62555;DHT22;48610;52.144;8.624;2023-02-15T20:05:04;5.60;99.90
62555;DHT22;48610;52.144;8.624;2023-02-15T20:08:06;5.40;99.90
62555;DHT22;48610;52.144;8.624;2023-02-15T20:11:12;5.60;99.90
62555;DHT22;48610;52.144;8.624;2023-02-15T20:14:13;5.40;99.90
62555;DHT22;48610;52.144;8.624;2023-02-15T20:17:14;5.30;99.90
62555;DHT22;48610;52.144;8.624;2023-02-15T20:20:16;5.30;99.90
62555;DHT22;48610;52.144;8.624;2023-02-15T20:23:30;5.50;99.90
62555;DHT22;48610;52.144;8.624;2023-02-15T20:26:31;5.70;99.90
62555;DHT22;48610;52.144;8.624;2023-02-15T20:29:32;5.70;99.90
62555;DHT22;48610;52.144;8.624;2023-02-15T20:32:32;5.70;99.90
62555;DHT22;48610;52.144;8.624;2023-02-15T20:35:33;5.60;99.90
62555;DHT22;48610;52.144;8.624;2023-02-15T20:38:33;5.30;99.90
62555;DHT22;48610;52.144;8.624;2023-02-15T20:41:34;5.40;99.90
62555;DHT22;48610;52.144;8.624;2023-02-15T20:44:35;5.20;99.90
62555;DHT22;48610;52.144;8.624;2023-02-15T20:47:35;4.90;99.90
62555;DHT22;48610;52.144;8.624;2023-02-15T20:50:36;4.80;99.90
62555;DHT22;48610;52.144;8.624;2023-02-15T20:53:37;4.70;99.90
62555;DHT22;48610;52.144;8.624;2023-02-15T20:56:38;4.80;99.90
62555;DHT22;48610;52.144;8.624;2023-02-15T20:59:39;4.90;99.90
62555;DHT22;48610;52.144;8.624;2023-02-15T21:02:40;4.90;99.90
62555;DHT22;48610;52.144;8.624;2023-02-15T21:05:41;5.00;99.90
62555;DHT22;48610;52.144;8.624;2023-02-15T21:08:44;5.10;99.90
62555;DHT22;48610;52.144;8.624;2023-02-15T21:11:45;4.90;99.90
62555;DHT22;48610;52.144;8.624;2023-02-15T21:14:46;4.80;99.90
62555;DHT22;48610;52.144;8.624;2023-02-15T21:17:47;4.90;99.90
62555;DHT22;48610;52.144;8.624;2023-02-15T21:20:49;4.80;99.90
62555;DHT22;48610;52.144;8.624;2023-02-15T21:23:51;4.80;99.90
62555;DHT22;48610;52.144;8.624;2023-02-15T21:26:53;4.60;99.90
62555;DHT22;48610;52.144;8.624;2023-02-15T21:29:53;4.80;99.90
62555;DHT22;48610;52.144;8.624;2023-02-15T21:32:54;4.90;99.90
62555;DHT22;48610;52.144;8.624;2023-02-15T21:35:55;5.00;99.90
62555;DHT22;48610;52.144;8.624;2023-02-15T21:38:57;5.00;99.90
62555;DHT22;48610;52.144;8.624;2023-02-15T21:41:58;4.80;99.90
62555;DHT22;48610;52.144;8.624;2023-02-15T21:45:17;4.80;99.90
62555;DHT22;48610;52.144;8.624;2023-02-15T21:48:36;4.80;99.90
62555;DHT22;48610;52.144;8.624;2023-02-15T21:51:37;4.70;99.90
62555;DHT22;48610;52.144;8.624;2023-02-15T21:54:57;4.80;99.90
62555;DHT22;48610;52.144;8.624;2023-02-15T21:57:58;4.90;99.90
62555;DHT22;48610;52.144;8.624;2023-02-15T22:00:59;4.80;99.90
62555;DHT22;48610;52.144;8.624;2023-02-15T22:04:00;4.70;99.90
62555;DHT22;48610;52.144;8.624;2023-02-15T22:07:01;4.50;99.90
62555;DHT22;48610;52.144;8.624;2023-02-15T22:10:02;4.70;99.90
62555;DHT22;48610;52.144;8.624;2023-02-15T22:13:03;4.90;99.90
62555;DHT22;48610;52.144;8.624;2023-02-15T22:16:04;5.00;99.90
62555;DHT22;48610;52.144;8.624;2023-02-15T22:19:10;5.00;99.90
62555;DHT22;48610;52.144;8.624;2023-02-15T22:22:11;5.00;99.90